Главная страница
METAR-TAF:

METAR-TAF

Аэропорты :

Саннесшёэн, Норвегия

широта: 65-58N, долгота: 012-28E, высота над уровнем моря: 1 м

Текущие метеонаблюдения

Эта сводка был подготовлена 46 минут назад, в 19:50 UTC
Ветер 9 Узел от северо-северо-восточный
Температура 14°C
Влажность 77%
Давление 1011 hPa
Видимость 10 км и более
Нет облачности ниже 1500 м, и нет кучево-дождевой облачности

METAR: ENST 131950Z 03009KT CAVOK 14/10 Q1011 RMK WIND 300FT 05012KT

Время: 22:36 (20:36 UTC)

Прогноз

Эта сводка был подготовлена 6 часа и 36 минут назад, в 14:00 UTC
Прогноз действительный с 13-го 15 UTC до 13-го 21 UTC
Ветер 8 Узел от северо-северо-восточный
Видимость 10 км и более
небольшая облачность на высоте 3000 фута

TAF: ENST 131400Z 1315/1321 02008KT 9999 FEW030

Метеонаблюдения и прогнозы для более 4000 аэропортов (сводки METAR и TAF).

Имеющиеся станции представлены на карте желтыми и красными точками.

Чтобы увидеть название станции, наведите на нее мышь.

Затем щелкните, чтобы увидеть метеонаблюдения и метеопрогнозы.

Управление картой: чтобы увеличить масштаб, щелкните зеленые кнопки с черным крестиком; чтобы уменьшить масштаб, щелкните зеленую кнопку с тире; для просмотра соседних карт щелкайте зеленые стрелки.


METAR-TAF: